Mentor, OH (44061)

12:02 AM EDT on October 21, 2014 (GMT -0400)
Mentorfire5 | Change Station
CLOSE
Current Station
Personal Weather Station
Location: Mentor, OH
Elevation: 620 ft
Nearby Weather Stations

Elev 620 ft 41.70 °N, 81.34 °W | Updated 6 minutes ago

Rain
Rain
54.0 °F
Feels Like 54.0 °F
N
1.0
Wind Variable Wind from WNW
Gusts 10.0 mph

Today
High -- | Low -- °F
--% Chance of Precip.
Yesterday
High -- | Low -- °F
Precip. -- in
7:44 AM 6:34 PM
Waning Crescent, 7% visible
Pressure 29.85 in
Visibility 4.0 miles
Clouds Mostly Cloudy 800 ft
Overcast 1200 ft
Dew Point 52 °F
Humidity 94%
Rainfall 0.33 in
Snow Depth Not available.
UV 0 out of 12
Pollen 1.40 out of 12
Ozone Good
PM2.5 Good
Flu Activity Sporadic
METAR KCGF 210245Z 25010KT 4SM -RA BR BKN008 OVC012 12/12 A2985

More Conditions Fewer Conditions

Pressure 29.85 in
Visibility 4.0 miles
Clouds Mostly Cloudy 800 ft
Overcast 1200 ft
Dew Point 52 °F
Humidity 94%
Rainfall 0.33 in
Snow Depth Not available.
UV 0 out of 12
Pollen 1.40 out of 12
Ozone Good
PM2.5 Good
Flu Activity Sporadic
METAR KCGF 210245Z 25010KT 4SM -RA BR BKN008 OVC012 12/12 A2985

More Conditions Fewer Conditions

10-Day Weather Forecast

Almanac

Astronomy

Oct. 21, 2014 Rise Set
Actual Time 7:44 AM EDT 6:34 PM EDT
Civil Twilight 7:16 AM EDT 7:03 PM EDT
Nautical Twilight 6:43 AM EDT 7:35 PM EDT
Astronomical Twilight 6:11 AM EDT 8:07 PM EDT
Moon 5:25 AM EDT 5:29 PM EDT
Length of Visible Light 11h 47m
Length of Day
10h 50m
Tomorrow will be 2m 37s shorter.
Waning Crescent, 7% of the Moon is Illuminated
Today
Waning Crescent
Oct 23
New
Oct 30
First Quarter
Nov 6
Full
Nov 14
Last Quarter

Yesterday's Extremes

State Highs State Lows

Community

WunderPhotos

Upload Photos

1,763,595 photos uploaded!

Nearby

Air Quality

  Air Quality AQ Index Pollutant
Yesterday Good
OZONE
Yesterday Good
PM10
Current Good
PM2.5
Current Good
OZONE
Monday Good
PM2.5
Monday Good
OZONE
Tuesday Good
PM2.5
Tuesday Good
OZONE
Wednesday Good
PM2.5
Wednesday Good
OZONE
Thursday Good
PM2.5
Thursday Good
OZONE
Friday Good
PM2.5
Friday Good
OZONE

Snow Depth

Station Depth Elevation
No new snow has been reported.

Earthquake Activity

City Distance Mag. Time & Date
No recent earthquake activity has been reported nearby.
Minimum magnitude displayed is 2.5.

Coastal Water Temperatures

Place Temperature
Fairport, OH 55.9 °F
Cleveland, OH 57.9 °F

Nearby Weather Stations